createdAt,value
2018-11-28T00:01:06.619Z,4.30
2018-11-28T00:03:39.110Z,4.30
2018-11-28T00:06:11.616Z,4.30
2018-11-28T00:08:44.012Z,4.20
2018-11-28T00:11:16.478Z,4.20
2018-11-28T00:13:48.925Z,4.00
2018-11-28T00:16:21.379Z,4.20
2018-11-28T00:18:53.775Z,3.90
2018-11-28T00:21:26.276Z,4.00
2018-11-28T00:23:58.767Z,4.00
2018-11-28T00:26:31.227Z,4.10
2018-11-28T00:29:03.652Z,4.00
2018-11-28T00:31:36.099Z,4.00
2018-11-28T00:34:08.558Z,4.00
2018-11-28T00:36:40.985Z,4.20
2018-11-28T00:39:13.347Z,4.00
2018-11-28T00:41:45.759Z,3.90
2018-11-28T00:44:18.155Z,3.90
2018-11-28T00:46:50.579Z,3.70
2018-11-28T00:49:23.124Z,3.80
2018-11-28T00:51:55.608Z,4.00
2018-11-28T00:54:28.028Z,4.10
2018-11-28T00:57:00.456Z,4.20
2018-11-28T00:59:32.829Z,4.20
2018-11-28T01:02:05.346Z,4.30
2018-11-28T01:04:38.878Z,4.20
2018-11-28T01:07:11.295Z,4.10
2018-11-28T01:09:43.713Z,4.20
2018-11-28T01:12:16.136Z,4.20
2018-11-28T01:14:48.537Z,4.10
2018-11-28T01:17:21.036Z,4.10
2018-11-28T01:19:53.429Z,4.00
2018-11-28T01:22:25.871Z,3.80
2018-11-28T01:24:58.367Z,3.70
2018-11-28T01:27:30.761Z,4.00
2018-11-28T01:30:05.686Z,4.00
2018-11-28T01:32:38.134Z,4.00
2018-11-28T01:35:11.435Z,4.10
2018-11-28T01:37:43.953Z,4.20
2018-11-28T01:40:17.352Z,4.00
2018-11-28T01:42:49.777Z,3.80
2018-11-28T01:45:22.757Z,4.00
2018-11-28T01:47:55.191Z,3.80
2018-11-28T01:50:27.606Z,3.90
2018-11-28T01:53:00.033Z,3.90
2018-11-28T01:55:32.403Z,3.90
2018-11-28T01:58:05.247Z,3.80
2018-11-28T02:00:37.676Z,3.90
2018-11-28T02:03:10.130Z,4.00
2018-11-28T02:05:42.507Z,3.70
2018-11-28T02:08:14.945Z,4.00
2018-11-28T02:10:47.330Z,3.90
2018-11-28T02:13:19.756Z,3.90
2018-11-28T02:15:52.132Z,3.80
2018-11-28T02:18:24.663Z,3.90
2018-11-28T02:20:57.409Z,3.90
2018-11-28T02:23:29.862Z,3.90
2018-11-28T02:26:02.428Z,4.00
2018-11-28T02:28:34.917Z,3.90
2018-11-28T02:31:07.355Z,4.00
2018-11-28T02:33:39.794Z,3.90
2018-11-28T02:36:12.189Z,3.90
2018-11-28T02:38:44.722Z,4.00
2018-11-28T02:41:17.107Z,4.00
2018-11-28T02:43:49.558Z,3.90
2018-11-28T02:46:31.060Z,4.10
2018-11-28T02:49:03.711Z,4.10
2018-11-28T02:51:36.094Z,4.10
2018-11-28T02:54:08.523Z,4.10
2018-11-28T02:56:40.998Z,4.00
2018-11-28T02:59:13.372Z,3.90
2018-11-28T03:01:45.778Z,3.80
2018-11-28T03:04:18.214Z,3.70
2018-11-28T03:06:50.693Z,3.40
2018-11-28T03:09:23.119Z,3.50
2018-11-28T03:11:55.565Z,3.70
2018-11-28T03:14:28.006Z,3.60
2018-11-28T03:17:00.461Z,3.60
2018-11-28T03:19:32.846Z,3.40
2018-11-28T03:22:06.287Z,3.30
2018-11-28T03:24:38.717Z,3.10
2018-11-28T03:27:11.238Z,3.10
2018-11-28T03:29:43.667Z,3.00
2018-11-28T03:32:16.302Z,3.10
2018-11-28T03:34:48.698Z,3.20
2018-11-28T03:37:21.327Z,3.00
2018-11-28T03:39:53.725Z,2.90
2018-11-28T03:42:26.474Z,3.00
2018-11-28T03:44:58.869Z,3.20
2018-11-28T03:47:33.078Z,3.10
2018-11-28T03:50:07.099Z,3.20
2018-11-28T03:52:39.782Z,3.10
2018-11-28T03:55:13.076Z,3.20
2018-11-28T03:57:46.546Z,3.00
2018-11-28T04:00:20.175Z,2.90
2018-11-28T04:02:53.024Z,2.90
2018-11-28T04:05:25.430Z,2.70
2018-11-28T04:07:57.957Z,2.60
2018-11-28T04:10:30.551Z,2.70
2018-11-28T04:13:02.981Z,2.80
2018-11-28T04:15:35.574Z,2.80
2018-11-28T04:18:08.178Z,2.90
2018-11-28T04:20:40.665Z,2.80
2018-11-28T04:23:13.107Z,2.80
2018-11-28T04:25:45.514Z,2.80
2018-11-28T04:28:17.955Z,2.80
2018-11-28T04:30:50.445Z,2.70
2018-11-28T04:33:23.003Z,2.70
2018-11-28T04:35:55.396Z,2.60
2018-11-28T04:38:27.863Z,2.60
2018-11-28T04:41:00.247Z,2.60
2018-11-28T04:43:32.721Z,2.90
2018-11-28T04:46:05.641Z,2.90
2018-11-28T04:48:38.200Z,2.60
2018-11-28T04:51:10.616Z,2.50
2018-11-28T04:53:43.034Z,2.70
2018-11-28T04:56:15.514Z,2.70
2018-11-28T04:58:47.997Z,2.80
2018-11-28T05:01:20.415Z,2.70
2018-11-28T05:03:52.912Z,2.60
2018-11-28T05:06:36.536Z,2.60
2018-11-28T05:09:09.000Z,2.50
2018-11-28T05:11:41.396Z,2.50
2018-11-28T05:14:13.832Z,2.60
2018-11-28T05:16:46.326Z,2.70
2018-11-28T05:19:18.779Z,2.70
2018-11-28T05:21:51.216Z,2.60
2018-11-28T05:24:23.667Z,2.50
2018-11-28T05:26:56.056Z,2.50
2018-11-28T05:29:30.226Z,2.60
2018-11-28T05:32:02.967Z,2.30
2018-11-28T05:34:35.429Z,2.10
2018-11-28T05:37:07.832Z,2.40
2018-11-28T05:39:40.270Z,2.30
2018-11-28T05:42:12.705Z,2.30
2018-11-28T05:44:45.146Z,2.20
2018-11-28T05:47:17.555Z,2.20
2018-11-28T05:49:50.123Z,2.20
2018-11-28T05:52:22.569Z,2.10
2018-11-28T05:54:55.012Z,2.10
2018-11-28T05:57:27.446Z,2.10
2018-11-28T05:59:59.926Z,2.00
2018-11-28T06:02:32.350Z,2.20
2018-11-28T06:05:06.177Z,1.90
2018-11-28T06:07:38.565Z,1.90
2018-11-28T06:10:11.214Z,1.90
2018-11-28T06:12:43.834Z,1.90
2018-11-28T06:15:16.172Z,1.90
2018-11-28T06:17:48.599Z,1.90
2018-11-28T06:20:21.012Z,2.10
2018-11-28T06:22:53.516Z,1.80
2018-11-28T06:25:25.943Z,2.00
2018-11-28T06:27:58.396Z,2.00
2018-11-28T06:30:31.037Z,1.90
2018-11-28T06:33:03.560Z,2.10
2018-11-28T06:35:36.167Z,2.10
2018-11-28T06:38:08.721Z,2.20
2018-11-28T06:40:41.225Z,1.90
2018-11-28T06:43:13.682Z,2.30
2018-11-28T06:45:46.112Z,2.00
2018-11-28T06:48:18.949Z,2.10
2018-11-28T06:50:51.490Z,2.30
2018-11-28T06:53:24.117Z,2.40
2018-11-28T06:55:56.554Z,2.40
2018-11-28T06:58:29.015Z,2.30
2018-11-28T07:01:01.552Z,2.30
2018-11-28T07:03:34.016Z,2.20
2018-11-28T07:06:06.594Z,2.30
2018-11-28T07:08:39.012Z,2.30
2018-11-28T07:11:11.464Z,2.20
2018-11-28T07:13:43.867Z,2.20
2018-11-28T07:16:16.450Z,2.20
2018-11-28T07:19:01.559Z,2.10
2018-11-28T07:21:34.345Z,2.10
2018-11-28T07:24:07.310Z,2.10
2018-11-28T07:26:39.765Z,2.00
2018-11-28T07:29:12.254Z,2.10
2018-11-28T07:31:44.728Z,2.00
2018-11-28T07:34:17.271Z,2.10
2018-11-28T07:36:49.693Z,2.10
2018-11-28T07:39:22.136Z,2.30
2018-11-28T07:41:54.596Z,2.40
2018-11-28T07:44:27.038Z,2.30
2018-11-28T07:46:59.543Z,2.40
2018-11-28T07:49:32.026Z,2.10
2018-11-28T07:52:04.824Z,2.20
2018-11-28T07:54:37.296Z,2.50
2018-11-28T07:57:09.804Z,2.40
2018-11-28T07:59:42.483Z,2.20
2018-11-28T08:02:14.908Z,2.40
2018-11-28T08:04:47.850Z,2.40
2018-11-28T08:07:20.349Z,2.50
2018-11-28T08:09:52.822Z,2.70
2018-11-28T08:12:27.030Z,2.40
2018-11-28T08:14:59.463Z,2.50
2018-11-28T08:17:31.941Z,2.50
2018-11-28T08:20:04.975Z,2.70
2018-11-28T08:22:37.785Z,2.60
2018-11-28T08:25:12.895Z,2.60
2018-11-28T08:27:45.861Z,2.50
2018-11-28T08:30:23.797Z,2.50
2018-11-28T08:32:56.875Z,2.70
2018-11-28T08:35:29.381Z,2.70
2018-11-28T08:38:01.850Z,2.80
2018-11-28T08:40:34.360Z,2.90
2018-11-28T08:43:06.782Z,2.70
2018-11-28T08:45:39.525Z,2.70
2018-11-28T08:48:16.221Z,3.00
2018-11-28T08:58:25.997Z,3.30
2018-11-28T09:00:59.329Z,3.20
2018-11-28T09:03:31.802Z,3.40
2018-11-28T09:06:04.628Z,3.10
2018-11-28T09:08:37.138Z,3.30
2018-11-28T09:11:09.596Z,3.30
2018-11-28T09:13:42.023Z,3.30
2018-11-28T09:16:14.576Z,3.50
2018-11-28T09:21:19.541Z,3.70
2018-11-28T09:23:52.019Z,3.80
2018-11-28T09:26:24.765Z,3.60
2018-11-28T09:28:57.243Z,3.80
2018-11-28T09:31:29.692Z,4.10
2018-11-28T09:34:03.424Z,4.00
2018-11-28T09:36:35.900Z,3.70
2018-11-28T09:39:08.331Z,3.80
2018-11-28T09:41:40.901Z,3.70
2018-11-28T09:44:13.323Z,3.80
2018-11-28T09:46:45.825Z,3.90
2018-11-28T09:49:18.251Z,3.90
2018-11-28T09:51:50.676Z,4.00
2018-11-28T09:54:23.319Z,4.00
2018-11-28T09:56:55.777Z,4.20
2018-11-28T09:59:28.243Z,4.20
2018-11-28T10:02:00.674Z,4.30
2018-11-28T10:04:33.124Z,4.40
2018-11-28T10:07:05.868Z,4.30
2018-11-28T10:09:38.654Z,4.30
2018-11-28T10:12:11.175Z,4.30
2018-11-28T10:14:43.758Z,4.30
2018-11-28T10:17:16.484Z,4.20
2018-11-28T10:19:49.066Z,4.40
2018-11-28T10:22:21.530Z,4.50
2018-11-28T10:24:53.965Z,4.60
2018-11-28T10:27:26.407Z,4.70
2018-11-28T10:29:58.928Z,4.80
2018-11-28T10:32:31.514Z,4.70
2018-11-28T10:35:04.478Z,4.60
2018-11-28T10:37:36.941Z,4.70
2018-11-28T10:40:11.623Z,4.70
2018-11-28T10:42:44.610Z,4.90
2018-11-28T10:45:18.570Z,5.20
2018-11-28T10:47:51.171Z,5.20
2018-11-28T10:52:56.058Z,5.50
2018-11-28T10:58:01.058Z,4.90
2018-11-28T11:00:39.471Z,4.90
2018-11-28T11:03:17.585Z,4.90
2018-11-28T11:05:55.731Z,5.10
2018-11-28T11:08:34.041Z,4.90
2018-11-28T11:11:12.228Z,4.80
2018-11-28T11:13:50.336Z,4.80
2018-11-28T11:16:28.425Z,4.90
2018-11-28T11:19:00.890Z,4.90
2018-11-28T11:21:33.472Z,5.00
2018-11-28T11:24:06.508Z,5.30
2018-11-28T11:26:39.034Z,5.20
2018-11-28T11:29:11.552Z,4.90
2018-11-28T11:31:44.006Z,5.40
2018-11-28T11:34:16.453Z,5.30
2018-11-28T11:36:49.188Z,5.10
2018-11-28T11:39:21.669Z,5.20
2018-11-28T11:41:54.207Z,5.10
2018-11-28T11:44:26.894Z,5.10
2018-11-28T11:46:59.393Z,5.30
2018-11-28T11:49:31.974Z,5.20
2018-11-28T11:52:04.491Z,5.00
2018-11-28T11:54:37.010Z,5.30
2018-11-28T11:57:09.611Z,5.00
2018-11-28T11:59:42.142Z,5.10
2018-11-28T12:02:14.639Z,5.10
2018-11-28T12:04:47.089Z,5.10
2018-11-28T12:07:19.592Z,5.20
2018-11-28T12:09:52.115Z,4.90
2018-11-28T12:12:24.545Z,5.00
2018-11-28T12:14:57.346Z,5.30
2018-11-28T12:17:30.539Z,5.40
2018-11-28T12:20:03.535Z,5.50
2018-11-28T12:22:36.131Z,5.70
2018-11-28T12:25:08.619Z,5.40
2018-11-28T12:27:41.171Z,5.60
2018-11-28T12:30:14.502Z,5.40
2018-11-28T12:32:46.950Z,5.40
2018-11-28T12:35:19.462Z,5.30
2018-11-28T12:37:52.284Z,5.00
2018-11-28T12:40:24.843Z,5.30
2018-11-28T12:42:57.510Z,5.60
2018-11-28T12:45:30.024Z,5.60
2018-11-28T12:48:02.562Z,5.60
2018-11-28T12:50:35.125Z,5.50
2018-11-28T12:53:09.480Z,5.60
2018-11-28T12:55:41.927Z,5.50
2018-11-28T12:58:16.785Z,5.40
2018-11-28T13:00:49.233Z,5.60
2018-11-28T13:03:21.716Z,5.60
2018-11-28T13:05:54.175Z,5.50
2018-11-28T13:08:26.691Z,5.30
2018-11-28T13:10:59.448Z,5.20
2018-11-28T13:13:31.913Z,5.40
2018-11-28T13:16:04.883Z,5.40
2018-11-28T13:18:37.852Z,5.40
2018-11-28T13:21:10.462Z,5.20
2018-11-28T13:23:42.977Z,5.50
2018-11-28T13:26:15.372Z,5.30
2018-11-28T13:28:47.980Z,5.50
2018-11-28T13:31:20.471Z,5.50
2018-11-28T13:33:53.125Z,5.50
2018-11-28T13:36:25.583Z,5.50
2018-11-28T13:38:58.133Z,5.50
2018-11-28T13:41:30.582Z,5.50
2018-11-28T13:44:03.114Z,5.60
2018-11-28T13:46:35.606Z,5.40
2018-11-28T13:49:08.108Z,5.30
2018-11-28T13:51:40.596Z,5.40
2018-11-28T13:54:21.217Z,5.40
2018-11-28T13:57:04.228Z,5.30
2018-11-28T13:59:20.151Z,5.40
2018-11-28T14:01:52.893Z,5.40
2018-11-28T14:04:25.415Z,5.20
2018-11-28T14:06:57.954Z,5.30
2018-11-28T14:09:30.481Z,5.10
2018-11-28T14:12:03.022Z,5.20
2018-11-28T14:14:35.433Z,4.90
2018-11-28T14:17:07.908Z,4.80
2018-11-28T14:19:40.424Z,4.80
2018-11-28T14:22:13.022Z,5.10
2018-11-28T14:24:45.584Z,5.30
2018-11-28T14:27:18.180Z,5.10
2018-11-28T14:29:50.718Z,4.80
2018-11-28T14:32:23.161Z,5.00
2018-11-28T14:34:55.610Z,5.10
2018-11-28T14:37:28.176Z,4.90
2018-11-28T14:40:00.691Z,4.80
2018-11-28T14:42:33.390Z,4.70
2018-11-28T14:45:08.875Z,4.80
2018-11-28T14:47:41.733Z,4.70
2018-11-28T14:50:15.250Z,4.60
2018-11-28T14:52:47.890Z,4.70
2018-11-28T14:55:22.648Z,4.80
2018-11-28T14:57:55.307Z,4.50
2018-11-28T15:00:32.237Z,4.30
2018-11-28T15:03:14.029Z,4.60
2018-11-28T15:05:55.445Z,4.30
2018-11-28T15:08:28.712Z,4.70
2018-11-28T15:11:09.255Z,4.50
2018-11-28T15:13:43.012Z,4.50
2018-11-28T15:16:15.519Z,4.70
2018-11-28T15:18:48.148Z,4.40
2018-11-28T15:21:20.948Z,4.50
2018-11-28T15:23:54.037Z,4.60
2018-11-28T15:26:26.453Z,4.50
2018-11-28T15:28:59.093Z,4.50
2018-11-28T15:31:31.875Z,4.50
2018-11-28T15:34:05.008Z,4.40
2018-11-28T15:36:37.618Z,4.60
2018-11-28T15:39:10.136Z,4.50
2018-11-28T15:41:42.847Z,4.30
2018-11-28T15:44:15.340Z,4.30
2018-11-28T15:46:47.815Z,4.30
2018-11-28T15:49:20.244Z,4.30
2018-11-28T15:51:53.090Z,4.30
2018-11-28T15:54:25.625Z,4.30
2018-11-28T15:56:58.061Z,4.30
2018-11-28T15:59:30.493Z,4.40
2018-11-28T16:02:03.197Z,4.30
2018-11-28T16:04:35.771Z,4.20
2018-11-28T16:07:08.243Z,4.20
2018-11-28T16:09:46.289Z,4.30
2018-11-28T16:12:18.781Z,4.30
2018-11-28T16:14:51.353Z,4.20
2018-11-28T16:17:23.832Z,4.30
2018-11-28T16:19:56.635Z,4.20
2018-11-28T16:22:30.018Z,4.10
2018-11-28T16:25:04.018Z,3.90
2018-11-28T16:39:19.494Z,3.80
2018-11-28T16:41:52.238Z,4.00
2018-11-28T16:44:25.570Z,4.10
2018-11-28T16:46:58.110Z,4.00
2018-11-28T16:49:30.722Z,4.30
2018-11-28T16:52:03.481Z,4.20
2018-11-28T16:54:36.155Z,4.10
2018-11-28T16:57:08.765Z,3.90
2018-11-28T16:59:41.405Z,3.90
2018-11-28T17:02:14.371Z,3.90
2018-11-28T17:04:47.200Z,3.80
2018-11-28T17:07:20.006Z,3.80
2018-11-28T17:09:54.519Z,3.80
2018-11-28T17:12:27.226Z,3.60
2018-11-28T17:15:00.016Z,3.70
2018-11-28T17:17:33.053Z,3.50
2018-11-28T17:20:09.572Z,3.70
2018-11-28T17:22:42.443Z,3.90
2018-11-28T17:25:19.640Z,3.50
2018-11-28T17:27:53.285Z,3.80
2018-11-28T17:30:28.162Z,3.70
2018-11-28T17:33:01.034Z,3.60
2018-11-28T17:35:33.857Z,3.60
2018-11-28T17:38:07.799Z,3.70
2018-11-28T17:40:41.105Z,3.60
2018-11-28T17:43:13.763Z,3.60
2018-11-28T17:45:46.301Z,3.50
2018-11-28T17:48:18.964Z,3.30
2018-11-28T17:50:52.588Z,3.50
2018-11-28T17:53:25.447Z,3.40
2018-11-28T17:55:58.776Z,3.30
2018-11-28T17:58:33.127Z,3.40
2018-11-28T18:01:06.165Z,3.40
2018-11-28T18:03:41.404Z,3.40
2018-11-28T18:06:14.139Z,3.30
2018-11-28T18:08:47.957Z,3.30
2018-11-28T18:11:20.789Z,3.50
2018-11-28T18:13:53.865Z,3.50
2018-11-28T18:16:29.457Z,3.30
2018-11-28T18:19:00.143Z,3.20
2018-11-28T18:21:32.949Z,3.20
2018-11-28T18:24:05.522Z,3.30
2018-11-28T18:26:38.643Z,3.10
2018-11-28T18:29:12.349Z,3.10
2018-11-28T18:31:45.165Z,3.30
2018-11-28T18:34:18.611Z,3.10
2018-11-28T18:36:52.215Z,3.10
2018-11-28T18:39:25.173Z,3.00
2018-11-28T18:41:57.988Z,3.00
2018-11-28T18:44:31.213Z,2.80
2018-11-28T18:47:03.822Z,2.90
2018-11-28T18:49:36.629Z,3.00
2018-11-28T18:52:10.104Z,2.80
2018-11-28T18:54:43.053Z,2.80
2018-11-28T18:57:15.586Z,2.90
2018-11-28T18:59:49.400Z,3.00
2018-11-28T19:02:23.388Z,3.00
2018-11-28T19:04:56.816Z,3.00
2018-11-28T19:07:29.597Z,3.10
2018-11-28T19:10:03.294Z,3.10
2018-11-28T19:12:37.930Z,3.00
2018-11-28T19:15:12.159Z,2.90
2018-11-28T19:17:46.804Z,2.80
2018-11-28T19:20:20.973Z,2.90
2018-11-28T19:22:56.936Z,2.90
2018-11-28T19:25:30.703Z,3.10
2018-11-28T19:28:03.842Z,2.90
2018-11-28T19:30:38.048Z,2.90
2018-11-28T19:33:12.699Z,3.00
2018-11-28T19:35:47.934Z,3.00
2018-11-28T19:38:20.692Z,3.00
2018-11-28T19:41:01.942Z,3.00
2018-11-28T19:43:34.894Z,3.00
2018-11-28T19:46:08.467Z,2.90
2018-11-28T19:48:41.586Z,2.90
2018-11-28T19:51:17.876Z,2.70
2018-11-28T19:53:51.355Z,2.90
2018-11-28T19:56:24.436Z,2.70
2018-11-28T19:58:57.115Z,2.90
2018-11-28T20:01:31.704Z,2.80
2018-11-28T20:04:04.798Z,2.80
2018-11-28T20:06:37.742Z,2.80
2018-11-28T20:09:16.704Z,2.60
2018-11-28T20:11:49.181Z,2.70
2018-11-28T20:14:22.033Z,2.60
2018-11-28T20:16:54.586Z,2.70
2018-11-28T20:19:27.789Z,2.70
2018-11-28T20:22:00.542Z,2.50
2018-11-28T20:24:33.654Z,2.60
2018-11-28T20:27:06.306Z,2.50
2018-11-28T20:29:38.822Z,2.60
2018-11-28T20:32:11.435Z,2.60
2018-11-28T20:34:43.952Z,2.50
2018-11-28T20:37:16.457Z,2.40
2018-11-28T20:39:49.279Z,2.40
2018-11-28T20:42:23.807Z,2.70
2018-11-28T20:44:56.618Z,2.50
2018-11-28T20:47:29.094Z,2.50
2018-11-28T20:50:01.877Z,2.50
2018-11-28T20:52:34.815Z,2.70
2018-11-28T20:55:09.242Z,2.60
2018-11-28T20:57:42.441Z,2.60
2018-11-28T21:00:17.770Z,2.60
2018-11-28T21:02:50.943Z,2.50
2018-11-28T21:05:24.016Z,2.60
2018-11-28T21:07:57.111Z,2.50
2018-11-28T21:10:34.341Z,2.70
2018-11-28T21:13:09.294Z,2.70
2018-11-28T21:15:43.543Z,2.80
2018-11-28T21:18:16.773Z,2.60
2018-11-28T21:20:49.554Z,2.60
2018-11-28T21:23:22.339Z,2.70
2018-11-28T21:25:54.948Z,2.70
2018-11-28T21:28:28.004Z,2.60
2018-11-28T21:31:02.797Z,2.40
2018-11-28T21:33:36.872Z,2.50
2018-11-28T21:36:10.516Z,2.70
2018-11-28T21:38:44.356Z,2.60
2018-11-28T21:41:18.959Z,2.60
2018-11-28T21:43:51.946Z,2.60
2018-11-28T21:46:24.799Z,2.70
2018-11-28T21:48:58.145Z,2.80
2018-11-28T21:51:31.041Z,2.70
2018-11-28T21:54:06.088Z,2.70
2018-11-28T21:56:38.954Z,2.50
2018-11-28T21:59:11.881Z,2.60
2018-11-28T22:01:45.624Z,2.60
2018-11-28T22:04:18.554Z,2.60
2018-11-28T22:06:51.437Z,2.70
2018-11-28T22:09:25.360Z,2.80
2018-11-28T22:11:58.808Z,2.80
2018-11-28T22:14:34.322Z,2.70
2018-11-28T22:17:07.069Z,2.60
2018-11-28T22:19:41.603Z,2.50
2018-11-28T22:22:15.052Z,2.80
2018-11-28T22:24:48.665Z,2.80
2018-11-28T22:27:21.429Z,2.60
2018-11-28T22:29:54.923Z,2.80
2018-11-28T22:32:28.011Z,2.50
2018-11-28T22:35:00.648Z,2.40
2018-11-28T22:37:33.470Z,2.50
2018-11-28T22:40:11.795Z,2.40
2018-11-28T22:42:44.474Z,2.40
2018-11-28T22:45:19.651Z,2.60
2018-11-28T22:47:52.365Z,2.50
2018-11-28T22:50:25.133Z,2.50
2018-11-28T22:52:57.840Z,2.40
2018-11-28T22:55:30.728Z,2.30
2018-11-28T22:58:03.427Z,2.40
2018-11-28T23:00:41.720Z,2.60
2018-11-28T23:03:14.462Z,2.50
2018-11-28T23:05:48.874Z,2.70
2018-11-28T23:08:22.043Z,2.60
2018-11-28T23:10:54.661Z,2.60
2018-11-28T23:13:27.372Z,2.40
2018-11-28T23:15:59.986Z,2.30
2018-11-28T23:18:32.805Z,2.00
2018-11-28T23:21:05.682Z,2.10
2018-11-28T23:23:38.472Z,2.10
2018-11-28T23:26:11.204Z,2.30
2018-11-28T23:28:43.855Z,2.40
2018-11-28T23:31:16.808Z,2.20
2018-11-28T23:33:49.365Z,2.30
2018-11-28T23:36:22.122Z,2.20
2018-11-28T23:38:54.707Z,2.30
2018-11-28T23:41:27.319Z,2.00
2018-11-28T23:43:59.898Z,2.20
2018-11-28T23:46:32.688Z,2.00
2018-11-28T23:49:05.303Z,1.70
2018-11-28T23:51:38.198Z,1.70
2018-11-28T23:54:10.854Z,2.10
2018-11-28T23:56:43.541Z,2.10
2018-11-28T23:59:16.116Z,2.10
